sensor_id;sensor_type;location;lat;lon;timestamp;temperature;humidity
13798;DHT22;6970;51.340;3.240;2024-01-11T00:01:12;-0.40;99.70
13798;DHT22;6970;51.340;3.240;2024-01-11T00:03:43;-0.40;99.70
13798;DHT22;6970;51.340;3.240;2024-01-11T00:06:10;-0.40;99.70
13798;DHT22;6970;51.340;3.240;2024-01-11T00:08:43;-0.40;99.70
13798;DHT22;6970;51.340;3.240;2024-01-11T00:11:10;-0.40;99.70
13798;DHT22;6970;51.340;3.240;2024-01-11T00:13:41;-0.40;99.70
13798;DHT22;6970;51.340;3.240;2024-01-11T00:16:10;-0.40;99.70
13798;DHT22;6970;51.340;3.240;2024-01-11T00:18:39;-0.40;99.70
13798;DHT22;6970;51.340;3.240;2024-01-11T00:21:07;-0.40;99.80
13798;DHT22;6970;51.340;3.240;2024-01-11T00:23:34;-0.40;99.70
13798;DHT22;6970;51.340;3.240;2024-01-11T00:26:01;-0.40;99.80
13798;DHT22;6970;51.340;3.240;2024-01-11T00:28:31;-0.40;99.80
13798;DHT22;6970;51.340;3.240;2024-01-11T00:30:58;-0.40;99.90
13798;DHT22;6970;51.340;3.240;2024-01-11T00:33:26;-0.40;99.90
13798;DHT22;6970;51.340;3.240;2024-01-11T00:35:55;-0.40;99.90
13798;DHT22;6970;51.340;3.240;2024-01-11T00:38:22;-0.40;99.90
13798;DHT22;6970;51.340;3.240;2024-01-11T00:40:49;-0.40;99.90
13798;DHT22;6970;51.340;3.240;2024-01-11T00:43:18;-0.30;99.90
13798;DHT22;6970;51.340;3.240;2024-01-11T00:45:45;-0.30;99.90
13798;DHT22;6970;51.340;3.240;2024-01-11T00:48:16;-0.30;99.90
13798;DHT22;6970;51.340;3.240;2024-01-11T00:50:43;-0.30;99.90
13798;DHT22;6970;51.340;3.240;2024-01-11T00:53:10;-0.30;99.90
13798;DHT22;6970;51.340;3.240;2024-01-11T00:55:38;-0.20;99.90
13798;DHT22;6970;51.340;3.240;2024-01-11T00:58:06;-0.20;99.90
13798;DHT22;6970;51.340;3.240;2024-01-11T01:00:33;-0.20;99.90
13798;DHT22;6970;51.340;3.240;2024-01-11T01:03:00;-0.20;99.90
13798;DHT22;6970;51.340;3.240;2024-01-11T01:05:28;-0.20;99.90
13798;DHT22;6970;51.340;3.240;2024-01-11T01:07:56;-0.10;99.90
13798;DHT22;6970;51.340;3.240;2024-01-11T01:10:25;-0.10;99.90
13798;DHT22;6970;51.340;3.240;2024-01-11T01:12:55;-0.10;99.90
13798;DHT22;6970;51.340;3.240;2024-01-11T01:15:24;-0.10;99.90
13798;DHT22;6970;51.340;3.240;2024-01-11T01:17:53;-0.10;99.90
13798;DHT22;6970;51.340;3.240;2024-01-11T01:20:22;-0.10;99.90
13798;DHT22;6970;51.340;3.240;2024-01-11T01:22:52;-0.20;99.90
13798;DHT22;6970;51.340;3.240;2024-01-11T01:25:19;-0.20;99.90
13798;DHT22;6970;51.340;3.240;2024-01-11T01:27:47;-0.20;99.90
13798;DHT22;6970;51.340;3.240;2024-01-11T01:30:16;-0.20;99.90
13798;DHT22;6970;51.340;3.240;2024-01-11T01:32:45;-0.20;99.90
13798;DHT22;6970;51.340;3.240;2024-01-11T01:35:14;-0.20;99.90
13798;DHT22;6970;51.340;3.240;2024-01-11T01:37:44;-0.20;99.90
13798;DHT22;6970;51.340;3.240;2024-01-11T01:40:12;-0.20;99.90
13798;DHT22;6970;51.340;3.240;2024-01-11T01:42:46;-0.20;99.90
13798;DHT22;6970;51.340;3.240;2024-01-11T01:45:15;-0.10;99.90
13798;DHT22;6970;51.340;3.240;2024-01-11T01:47:43;-0.10;99.90
13798;DHT22;6970;51.340;3.240;2024-01-11T01:50:11;-0.10;99.90
13798;DHT22;6970;51.340;3.240;2024-01-11T01:52:40;-0.10;99.90
13798;DHT22;6970;51.340;3.240;2024-01-11T01:55:10;-0.10;99.90
13798;DHT22;6970;51.340;3.240;2024-01-11T01:57:43;-0.20;99.90
13798;DHT22;6970;51.340;3.240;2024-01-11T02:00:16;-0.20;99.90
13798;DHT22;6970;51.340;3.240;2024-01-11T02:02:44;-0.20;99.90
13798;DHT22;6970;51.340;3.240;2024-01-11T02:05:16;-0.20;99.90
13798;DHT22;6970;51.340;3.240;2024-01-11T02:07:44;-0.20;99.90
13798;DHT22;6970;51.340;3.240;2024-01-11T02:10:15;-0.20;99.90
13798;DHT22;6970;51.340;3.240;2024-01-11T02:12:46;-0.20;99.90
13798;DHT22;6970;51.340;3.240;2024-01-11T02:15:14;-0.20;99.90
13798;DHT22;6970;51.340;3.240;2024-01-11T02:17:45;-0.30;99.90
13798;DHT22;6970;51.340;3.240;2024-01-11T02:20:14;-0.30;99.90
13798;DHT22;6970;51.340;3.240;2024-01-11T02:22:47;-0.30;99.90
13798;DHT22;6970;51.340;3.240;2024-01-11T02:25:18;-0.30;99.90
13798;DHT22;6970;51.340;3.240;2024-01-11T02:27:47;-0.30;99.90
13798;DHT22;6970;51.340;3.240;2024-01-11T02:30:15;-0.30;99.90
13798;DHT22;6970;51.340;3.240;2024-01-11T02:32:50;-0.30;99.90
13798;DHT22;6970;51.340;3.240;2024-01-11T02:35:20;-0.30;99.90
13798;DHT22;6970;51.340;3.240;2024-01-11T02:37:49;-0.30;99.90
13798;DHT22;6970;51.340;3.240;2024-01-11T02:40:20;-0.30;99.90
13798;DHT22;6970;51.340;3.240;2024-01-11T02:42:50;-0.30;99.90
13798;DHT22;6970;51.340;3.240;2024-01-11T02:45:19;-0.30;99.90
13798;DHT22;6970;51.340;3.240;2024-01-11T02:47:46;-0.30;99.90
13798;DHT22;6970;51.340;3.240;2024-01-11T02:50:17;-0.30;99.90
13798;DHT22;6970;51.340;3.240;2024-01-11T02:52:45;-0.30;99.90
13798;DHT22;6970;51.340;3.240;2024-01-11T02:55:13;-0.30;99.90
13798;DHT22;6970;51.340;3.240;2024-01-11T02:57:43;-0.30;99.90
13798;DHT22;6970;51.340;3.240;2024-01-11T03:00:14;-0.30;99.90
13798;DHT22;6970;51.340;3.240;2024-01-11T03:02:44;-0.30;99.90
13798;DHT22;6970;51.340;3.240;2024-01-11T03:05:14;-0.20;99.90
13798;DHT22;6970;51.340;3.240;2024-01-11T03:07:44;-0.20;99.90
13798;DHT22;6970;51.340;3.240;2024-01-11T03:10:12;-0.20;99.90
13798;DHT22;6970;51.340;3.240;2024-01-11T03:12:42;-0.20;99.90
13798;DHT22;6970;51.340;3.240;2024-01-11T03:15:09;-0.20;99.90
13798;DHT22;6970;51.340;3.240;2024-01-11T03:17:38;-0.20;99.90
13798;DHT22;6970;51.340;3.240;2024-01-11T03:20:07;-0.20;99.90
13798;DHT22;6970;51.340;3.240;2024-01-11T03:22:37;-0.20;99.90
13798;DHT22;6970;51.340;3.240;2024-01-11T03:25:14;-0.20;99.90
13798;DHT22;6970;51.340;3.240;2024-01-11T03:27:42;-0.20;99.90
13798;DHT22;6970;51.340;3.240;2024-01-11T03:30:09;-0.20;99.90
13798;DHT22;6970;51.340;3.240;2024-01-11T03:32:40;-0.30;99.90
13798;DHT22;6970;51.340;3.240;2024-01-11T03:35:08;-0.30;99.90
13798;DHT22;6970;51.340;3.240;2024-01-11T03:37:38;-0.30;99.90
13798;DHT22;6970;51.340;3.240;2024-01-11T03:40:06;-0.30;99.90
13798;DHT22;6970;51.340;3.240;2024-01-11T03:42:34;-0.30;99.90
13798;DHT22;6970;51.340;3.240;2024-01-11T03:45:04;-0.30;99.90
13798;DHT22;6970;51.340;3.240;2024-01-11T03:47:34;-0.30;99.90
13798;DHT22;6970;51.340;3.240;2024-01-11T03:50:01;-0.30;99.90
13798;DHT22;6970;51.340;3.240;2024-01-11T03:52:28;-0.30;99.90
13798;DHT22;6970;51.340;3.240;2024-01-11T03:54:55;-0.30;99.90
13798;DHT22;6970;51.340;3.240;2024-01-11T03:57:23;-0.30;99.90
13798;DHT22;6970;51.340;3.240;2024-01-11T03:59:53;-0.30;99.90
13798;DHT22;6970;51.340;3.240;2024-01-11T04:02:22;-0.30;99.90
13798;DHT22;6970;51.340;3.240;2024-01-11T04:04:52;-0.30;99.90
13798;DHT22;6970;51.340;3.240;2024-01-11T04:07:20;-0.30;99.90
13798;DHT22;6970;51.340;3.240;2024-01-11T04:09:50;-0.40;99.90
13798;DHT22;6970;51.340;3.240;2024-01-11T04:12:20;-0.40;99.90
13798;DHT22;6970;51.340;3.240;2024-01-11T04:14:50;-0.30;99.90
13798;DHT22;6970;51.340;3.240;2024-01-11T04:17:17;-0.40;99.90
13798;DHT22;6970;51.340;3.240;2024-01-11T04:19:44;-0.40;99.90
13798;DHT22;6970;51.340;3.240;2024-01-11T04:22:12;-0.30;99.90
13798;DHT22;6970;51.340;3.240;2024-01-11T04:24:42;-0.30;99.90
13798;DHT22;6970;51.340;3.240;2024-01-11T04:27:09;-0.30;99.90
13798;DHT22;6970;51.340;3.240;2024-01-11T04:29:36;-0.30;99.90
13798;DHT22;6970;51.340;3.240;2024-01-11T04:32:07;-0.20;99.90
13798;DHT22;6970;51.340;3.240;2024-01-11T04:34:34;-0.20;99.90
13798;DHT22;6970;51.340;3.240;2024-01-11T04:37:04;-0.10;99.90
13798;DHT22;6970;51.340;3.240;2024-01-11T04:39:33;-0.10;99.90
13798;DHT22;6970;51.340;3.240;2024-01-11T04:42:02;0.00;99.90
13798;DHT22;6970;51.340;3.240;2024-01-11T04:44:31;0.00;99.90
13798;DHT22;6970;51.340;3.240;2024-01-11T04:46:58;0.10;99.90
13798;DHT22;6970;51.340;3.240;2024-01-11T04:49:35;0.10;99.90
13798;DHT22;6970;51.340;3.240;2024-01-11T04:52:02;0.10;99.90
13798;DHT22;6970;51.340;3.240;2024-01-11T04:54:29;0.20;99.90
13798;DHT22;6970;51.340;3.240;2024-01-11T04:56:58;0.20;99.90
13798;DHT22;6970;51.340;3.240;2024-01-11T04:59:26;0.20;99.90
13798;DHT22;6970;51.340;3.240;2024-01-11T05:01:53;0.20;99.90
13798;DHT22;6970;51.340;3.240;2024-01-11T05:04:21;0.20;99.90
13798;DHT22;6970;51.340;3.240;2024-01-11T05:06:51;0.20;99.90
13798;DHT22;6970;51.340;3.240;2024-01-11T05:09:19;0.30;99.90
13798;DHT22;6970;51.340;3.240;2024-01-11T05:11:46;0.30;99.90
13798;DHT22;6970;51.340;3.240;2024-01-11T05:14:14;0.30;99.90
13798;DHT22;6970;51.340;3.240;2024-01-11T05:16:41;0.30;99.90
13798;DHT22;6970;51.340;3.240;2024-01-11T05:19:08;0.30;99.90
13798;DHT22;6970;51.340;3.240;2024-01-11T05:21:35;0.40;99.90
13798;DHT22;6970;51.340;3.240;2024-01-11T05:24:08;0.40;99.90
13798;DHT22;6970;51.340;3.240;2024-01-11T05:26:38;0.40;99.90
13798;DHT22;6970;51.340;3.240;2024-01-11T05:29:08;0.40;99.90
13798;DHT22;6970;51.340;3.240;2024-01-11T05:31:39;0.40;99.90
13798;DHT22;6970;51.340;3.240;2024-01-11T05:34:07;0.40;99.90
13798;DHT22;6970;51.340;3.240;2024-01-11T05:36:38;0.40;99.90
13798;DHT22;6970;51.340;3.240;2024-01-11T05:39:07;0.40;99.90
13798;DHT22;6970;51.340;3.240;2024-01-11T05:41:38;0.40;99.90
13798;DHT22;6970;51.340;3.240;2024-01-11T05:44:06;0.40;99.90
13798;DHT22;6970;51.340;3.240;2024-01-11T05:46:33;0.40;99.90
13798;DHT22;6970;51.340;3.240;2024-01-11T05:49:03;0.50;99.90
13798;DHT22;6970;51.340;3.240;2024-01-11T05:51:31;0.50;99.90
13798;DHT22;6970;51.340;3.240;2024-01-11T05:53:58;0.50;99.90
13798;DHT22;6970;51.340;3.240;2024-01-11T05:56:26;0.50;99.90
13798;DHT22;6970;51.340;3.240;2024-01-11T05:58:54;0.50;99.90
13798;DHT22;6970;51.340;3.240;2024-01-11T06:01:21;0.50;99.90
13798;DHT22;6970;51.340;3.240;2024-01-11T06:03:52;0.50;99.90
13798;DHT22;6970;51.340;3.240;2024-01-11T06:06:19;0.60;99.90
13798;DHT22;6970;51.340;3.240;2024-01-11T06:08:49;0.60;99.90
13798;DHT22;6970;51.340;3.240;2024-01-11T06:11:17;0.60;99.90
13798;DHT22;6970;51.340;3.240;2024-01-11T06:13:45;0.60;99.90
13798;DHT22;6970;51.340;3.240;2024-01-11T06:16:15;0.60;99.90
13798;DHT22;6970;51.340;3.240;2024-01-11T06:18:42;0.60;99.90
13798;DHT22;6970;51.340;3.240;2024-01-11T06:21:10;0.60;99.90
13798;DHT22;6970;51.340;3.240;2024-01-11T06:23:41;0.60;99.90
13798;DHT22;6970;51.340;3.240;2024-01-11T06:26:10;0.60;99.90
13798;DHT22;6970;51.340;3.240;2024-01-11T06:28:37;0.60;99.90
13798;DHT22;6970;51.340;3.240;2024-01-11T06:31:09;0.60;99.90
13798;DHT22;6970;51.340;3.240;2024-01-11T06:33:42;0.60;99.90
13798;DHT22;6970;51.340;3.240;2024-01-11T06:36:13;0.60;99.90
13798;DHT22;6970;51.340;3.240;2024-01-11T06:38:42;0.60;99.90
13798;DHT22;6970;51.340;3.240;2024-01-11T06:41:12;0.60;99.90
13798;DHT22;6970;51.340;3.240;2024-01-11T06:43:39;0.60;99.90
13798;DHT22;6970;51.340;3.240;2024-01-11T06:46:07;0.60;99.90
13798;DHT22;6970;51.340;3.240;2024-01-11T06:48:39;0.60;99.90
13798;DHT22;6970;51.340;3.240;2024-01-11T06:51:07;0.60;99.90
13798;DHT22;6970;51.340;3.240;2024-01-11T06:53:36;0.60;99.90
13798;DHT22;6970;51.340;3.240;2024-01-11T06:56:16;0.60;99.90
13798;DHT22;6970;51.340;3.240;2024-01-11T06:58:44;0.50;99.90
13798;DHT22;6970;51.340;3.240;2024-01-11T07:01:14;0.50;99.90
13798;DHT22;6970;51.340;3.240;2024-01-11T07:03:44;0.50;99.90
13798;DHT22;6970;51.340;3.240;2024-01-11T07:06:11;0.50;99.90
13798;DHT22;6970;51.340;3.240;2024-01-11T07:08:39;0.50;99.90
13798;DHT22;6970;51.340;3.240;2024-01-11T07:11:07;0.50;99.90
13798;DHT22;6970;51.340;3.240;2024-01-11T07:13:36;0.50;99.90
13798;DHT22;6970;51.340;3.240;2024-01-11T07:16:04;0.50;99.90
13798;DHT22;6970;51.340;3.240;2024-01-11T07:18:31;0.50;99.90
13798;DHT22;6970;51.340;3.240;2024-01-11T07:21:00;0.40;99.90
13798;DHT22;6970;51.340;3.240;2024-01-11T07:23:30;0.40;99.90
13798;DHT22;6970;51.340;3.240;2024-01-11T07:25:59;0.50;99.90
13798;DHT22;6970;51.340;3.240;2024-01-11T07:28:27;0.40;99.90
13798;DHT22;6970;51.340;3.240;2024-01-11T07:30:54;0.40;99.90
13798;DHT22;6970;51.340;3.240;2024-01-11T07:33:21;0.40;99.90
13798;DHT22;6970;51.340;3.240;2024-01-11T07:35:49;0.40;99.90
13798;DHT22;6970;51.340;3.240;2024-01-11T07:38:19;0.50;99.90
13798;DHT22;6970;51.340;3.240;2024-01-11T07:40:47;0.40;99.90
13798;DHT22;6970;51.340;3.240;2024-01-11T07:43:14;0.40;99.90
13798;DHT22;6970;51.340;3.240;2024-01-11T07:45:44;0.50;99.90
13798;DHT22;6970;51.340;3.240;2024-01-11T07:48:11;0.50;99.90
13798;DHT22;6970;51.340;3.240;2024-01-11T07:50:39;0.50;99.90
13798;DHT22;6970;51.340;3.240;2024-01-11T07:53:06;0.50;99.90
13798;DHT22;6970;51.340;3.240;2024-01-11T07:55:33;0.60;99.90
13798;DHT22;6970;51.340;3.240;2024-01-11T07:58:00;0.70;99.90
13798;DHT22;6970;51.340;3.240;2024-01-11T08:00:27;0.70;99.90
13798;DHT22;6970;51.340;3.240;2024-01-11T08:02:55;0.80;99.90
13798;DHT22;6970;51.340;3.240;2024-01-11T08:05:23;0.80;99.90
13798;DHT22;6970;51.340;3.240;2024-01-11T08:07:51;0.90;99.90
13798;DHT22;6970;51.340;3.240;2024-01-11T08:10:21;1.10;99.90
13798;DHT22;6970;51.340;3.240;2024-01-11T08:12:52;1.70;99.90
13798;DHT22;6970;51.340;3.240;2024-01-11T08:15:20;2.50;99.90
13798;DHT22;6970;51.340;3.240;2024-01-11T08:17:50;3.40;99.90
13798;DHT22;6970;51.340;3.240;2024-01-11T08:20:17;4.30;99.90
13798;DHT22;6970;51.340;3.240;2024-01-11T08:22:44;5.10;99.90
13798;DHT22;6970;51.340;3.240;2024-01-11T08:25:16;5.90;99.90
13798;DHT22;6970;51.340;3.240;2024-01-11T08:27:44;6.80;99.90
13798;DHT22;6970;51.340;3.240;2024-01-11T08:30:14;7.90;99.30
13798;DHT22;6970;51.340;3.240;2024-01-11T08:32:43;8.80;97.40
13798;DHT22;6970;51.340;3.240;2024-01-11T08:35:13;9.80;96.60
13798;DHT22;6970;51.340;3.240;2024-01-11T08:37:41;10.60;93.90
13798;DHT22;6970;51.340;3.240;2024-01-11T08:40:08;11.10;91.40
13798;DHT22;6970;51.340;3.240;2024-01-11T08:42:39;11.40;90.70
13798;DHT22;6970;51.340;3.240;2024-01-11T08:45:08;11.70;90.00
13798;DHT22;6970;51.340;3.240;2024-01-11T08:47:35;11.80;88.10
13798;DHT22;6970;51.340;3.240;2024-01-11T08:50:06;12.20;87.80
13798;DHT22;6970;51.340;3.240;2024-01-11T08:52:36;12.50;85.50
13798;DHT22;6970;51.340;3.240;2024-01-11T08:55:11;12.70;83.80
13798;DHT22;6970;51.340;3.240;2024-01-11T08:57:41;13.20;83.10
13798;DHT22;6970;51.340;3.240;2024-01-11T09:00:09;13.70;79.60
13798;DHT22;6970;51.340;3.240;2024-01-11T09:02:36;14.20;79.90
13798;DHT22;6970;51.340;3.240;2024-01-11T09:05:03;14.90;77.90
13798;DHT22;6970;51.340;3.240;2024-01-11T09:07:38;15.50;75.30
13798;DHT22;6970;51.340;3.240;2024-01-11T09:10:08;16.00;73.70
13798;DHT22;6970;51.340;3.240;2024-01-11T09:12:43;16.30;73.00
13798;DHT22;6970;51.340;3.240;2024-01-11T09:15:14;16.90;72.20
13798;DHT22;6970;51.340;3.240;2024-01-11T09:17:43;17.10;70.80
13798;DHT22;6970;51.340;3.240;2024-01-11T09:20:12;17.40;69.80
13798;DHT22;6970;51.340;3.240;2024-01-11T09:22:42;17.40;67.40
13798;DHT22;6970;51.340;3.240;2024-01-11T09:25:09;17.50;67.90
13798;DHT22;6970;51.340;3.240;2024-01-11T09:27:36;17.60;67.10
13798;DHT22;6970;51.340;3.240;2024-01-11T09:30:06;17.60;66.20
13798;DHT22;6970;51.340;3.240;2024-01-11T09:32:33;17.80;66.30
13798;DHT22;6970;51.340;3.240;2024-01-11T09:35:03;17.90;65.30
13798;DHT22;6970;51.340;3.240;2024-01-11T09:37:32;18.10;64.40
13798;DHT22;6970;51.340;3.240;2024-01-11T09:40:02;18.30;64.00
13798;DHT22;6970;51.340;3.240;2024-01-11T09:42:29;18.50;63.20
13798;DHT22;6970;51.340;3.240;2024-01-11T09:44:58;18.60;62.70
13798;DHT22;6970;51.340;3.240;2024-01-11T09:47:28;18.70;62.40
13798;DHT22;6970;51.340;3.240;2024-01-11T09:49:56;18.80;61.30
13798;DHT22;6970;51.340;3.240;2024-01-11T09:52:26;18.90;61.00
13798;DHT22;6970;51.340;3.240;2024-01-11T09:54:56;19.00;60.60
13798;DHT22;6970;51.340;3.240;2024-01-11T09:57:32;19.20;60.90
13798;DHT22;6970;51.340;3.240;2024-01-11T10:00:03;19.50;60.50
13798;DHT22;6970;51.340;3.240;2024-01-11T10:02:34;19.60;59.80
13798;DHT22;6970;51.340;3.240;2024-01-11T10:05:02;19.70;59.10
13798;DHT22;6970;51.340;3.240;2024-01-11T10:07:32;19.80;59.30
13798;DHT22;6970;51.340;3.240;2024-01-11T10:10:04;19.90;58.50
13798;DHT22;6970;51.340;3.240;2024-01-11T10:12:32;19.90;58.70
13798;DHT22;6970;51.340;3.240;2024-01-11T10:15:09;20.00;58.60
13798;DHT22;6970;51.340;3.240;2024-01-11T10:17:41;19.80;58.30
13798;DHT22;6970;51.340;3.240;2024-01-11T10:20:08;19.60;57.70
13798;DHT22;6970;51.340;3.240;2024-01-11T10:22:38;19.40;57.90
13798;DHT22;6970;51.340;3.240;2024-01-11T10:25:13;19.30;58.20
13798;DHT22;6970;51.340;3.240;2024-01-11T10:27:45;19.30;58.60
13798;DHT22;6970;51.340;3.240;2024-01-11T10:30:16;19.50;58.10
13798;DHT22;6970;51.340;3.240;2024-01-11T10:32:45;19.40;57.30
13798;DHT22;6970;51.340;3.240;2024-01-11T10:35:16;19.40;58.30
13798;DHT22;6970;51.340;3.240;2024-01-11T10:37:45;19.40;57.50
13798;DHT22;6970;51.340;3.240;2024-01-11T10:40:13;19.40;57.80
13798;DHT22;6970;51.340;3.240;2024-01-11T10:42:45;19.40;58.10
13798;DHT22;6970;51.340;3.240;2024-01-11T10:45:20;19.40;58.90
13798;DHT22;6970;51.340;3.240;2024-01-11T10:50:16;19.70;59.40
13798;DHT22;6970;51.340;3.240;2024-01-11T10:53:12;19.80;59.40
13798;DHT22;6970;51.340;3.240;2024-01-11T10:55:38;19.60;58.50
13798;DHT22;6970;51.340;3.240;2024-01-11T10:58:07;19.30;58.20
13798;DHT22;6970;51.340;3.240;2024-01-11T11:00:38;18.90;58.60
13798;DHT22;6970;51.340;3.240;2024-01-11T11:03:05;18.60;59.00
13798;DHT22;6970;51.340;3.240;2024-01-11T11:05:35;18.30;58.00
13798;DHT22;6970;51.340;3.240;2024-01-11T11:08:09;17.80;58.10
13798;DHT22;6970;51.340;3.240;2024-01-11T11:10:40;17.40;58.60
13798;DHT22;6970;51.340;3.240;2024-01-11T11:13:12;17.00;57.40
13798;DHT22;6970;51.340;3.240;2024-01-11T11:15:45;16.60;57.30
13798;DHT22;6970;51.340;3.240;2024-01-11T11:18:15;16.30;58.00
13798;DHT22;6970;51.340;3.240;2024-01-11T11:20:45;16.20;58.20
13798;DHT22;6970;51.340;3.240;2024-01-11T11:23:15;16.20;58.30
13798;DHT22;6970;51.340;3.240;2024-01-11T11:25:54;16.40;57.00
13798;DHT22;6970;51.340;3.240;2024-01-11T11:28:27;16.30;57.40
13798;DHT22;6970;51.340;3.240;2024-01-11T11:31:00;16.20;58.40
13798;DHT22;6970;51.340;3.240;2024-01-11T11:33:27;15.90;59.70
13798;DHT22;6970;51.340;3.240;2024-01-11T11:35:58;15.60;61.20
13798;DHT22;6970;51.340;3.240;2024-01-11T11:38:30;15.20;62.70
13798;DHT22;6970;51.340;3.240;2024-01-11T11:41:00;14.60;64.50
13798;DHT22;6970;51.340;3.240;2024-01-11T11:43:29;14.00;66.00
13798;DHT22;6970;51.340;3.240;2024-01-11T11:45:57;13.60;68.20
13798;DHT22;6970;51.340;3.240;2024-01-11T11:51:16;12.50;70.50
13798;DHT22;6970;51.340;3.240;2024-01-11T11:53:50;11.90;72.50
13798;DHT22;6970;51.340;3.240;2024-01-11T11:56:21;11.40;73.80
13798;DHT22;6970;51.340;3.240;2024-01-11T11:58:52;11.10;75.80
13798;DHT22;6970;51.340;3.240;2024-01-11T12:01:24;10.90;76.70
13798;DHT22;6970;51.340;3.240;2024-01-11T12:03:52;10.70;78.70
13798;DHT22;6970;51.340;3.240;2024-01-11T12:06:21;10.60;80.60
13798;DHT22;6970;51.340;3.240;2024-01-11T12:08:53;10.40;81.80
13798;DHT22;6970;51.340;3.240;2024-01-11T12:11:26;10.30;83.00
13798;DHT22;6970;51.340;3.240;2024-01-11T12:13:54;10.20;85.00
13798;DHT22;6970;51.340;3.240;2024-01-11T12:16:24;10.00;86.20
13798;DHT22;6970;51.340;3.240;2024-01-11T12:18:54;9.80;87.40
13798;DHT22;6970;51.340;3.240;2024-01-11T12:21:23;9.60;88.20
13798;DHT22;6970;51.340;3.240;2024-01-11T12:23:52;9.60;89.30
13798;DHT22;6970;51.340;3.240;2024-01-11T12:26:20;9.50;90.00
13798;DHT22;6970;51.340;3.240;2024-01-11T12:28:56;9.30;90.50
13798;DHT22;6970;51.340;3.240;2024-01-11T12:31:26;9.20;91.60
13798;DHT22;6970;51.340;3.240;2024-01-11T12:33:55;9.10;92.30
13798;DHT22;6970;51.340;3.240;2024-01-11T12:36:24;9.00;92.70
13798;DHT22;6970;51.340;3.240;2024-01-11T12:38:53;9.00;93.00
13798;DHT22;6970;51.340;3.240;2024-01-11T12:41:21;8.90;92.20
13798;DHT22;6970;51.340;3.240;2024-01-11T12:43:51;8.90;92.50
13798;DHT22;6970;51.340;3.240;2024-01-11T12:46:19;8.80;92.50
13798;DHT22;6970;51.340;3.240;2024-01-11T12:48:49;8.70;92.80
13798;DHT22;6970;51.340;3.240;2024-01-11T12:51:20;8.60;93.70
13798;DHT22;6970;51.340;3.240;2024-01-11T12:53:53;8.30;94.30
13798;DHT22;6970;51.340;3.240;2024-01-11T12:56:20;7.90;94.70
13798;DHT22;6970;51.340;3.240;2024-01-11T12:58:51;7.60;95.80
13798;DHT22;6970;51.340;3.240;2024-01-11T13:01:19;7.30;96.50
13798;DHT22;6970;51.340;3.240;2024-01-11T13:03:50;7.00;97.30
13798;DHT22;6970;51.340;3.240;2024-01-11T13:06:20;6.80;97.50
13798;DHT22;6970;51.340;3.240;2024-01-11T13:08:47;6.70;98.10
13798;DHT22;6970;51.340;3.240;2024-01-11T13:11:18;6.60;98.60
13798;DHT22;6970;51.340;3.240;2024-01-11T13:13:51;6.50;98.90
13798;DHT22;6970;51.340;3.240;2024-01-11T13:16:20;6.40;99.20
13798;DHT22;6970;51.340;3.240;2024-01-11T13:18:48;6.30;99.50
13798;DHT22;6970;51.340;3.240;2024-01-11T13:21:16;6.30;99.90
13798;DHT22;6970;51.340;3.240;2024-01-11T13:23:44;6.20;99.90
13798;DHT22;6970;51.340;3.240;2024-01-11T13:26:14;6.20;99.90
13798;DHT22;6970;51.340;3.240;2024-01-11T13:28:44;6.20;99.90
13798;DHT22;6970;51.340;3.240;2024-01-11T13:31:14;6.10;99.90
13798;DHT22;6970;51.340;3.240;2024-01-11T13:33:41;6.10;99.90
13798;DHT22;6970;51.340;3.240;2024-01-11T13:36:08;6.10;99.90
13798;DHT22;6970;51.340;3.240;2024-01-11T13:38:36;6.20;99.90
13798;DHT22;6970;51.340;3.240;2024-01-11T13:41:06;6.10;99.90
13798;DHT22;6970;51.340;3.240;2024-01-11T13:43:38;6.10;99.90
13798;DHT22;6970;51.340;3.240;2024-01-11T13:46:08;6.00;99.90
13798;DHT22;6970;51.340;3.240;2024-01-11T13:48:39;6.00;99.90
13798;DHT22;6970;51.340;3.240;2024-01-11T13:51:08;5.90;99.90
13798;DHT22;6970;51.340;3.240;2024-01-11T13:53:40;5.80;99.90
13798;DHT22;6970;51.340;3.240;2024-01-11T13:56:07;5.70;99.90
13798;DHT22;6970;51.340;3.240;2024-01-11T13:58:36;5.70;99.90
13798;DHT22;6970;51.340;3.240;2024-01-11T14:01:04;5.60;99.90
13798;DHT22;6970;51.340;3.240;2024-01-11T14:03:31;5.50;99.90
13798;DHT22;6970;51.340;3.240;2024-01-11T14:05:58;5.50;99.90
13798;DHT22;6970;51.340;3.240;2024-01-11T14:08:27;5.40;99.90
13798;DHT22;6970;51.340;3.240;2024-01-11T14:10:55;5.40;99.90
13798;DHT22;6970;51.340;3.240;2024-01-11T14:13:26;5.40;99.90
13798;DHT22;6970;51.340;3.240;2024-01-11T14:15:56;5.40;99.90
13798;DHT22;6970;51.340;3.240;2024-01-11T14:18:25;5.40;99.90
13798;DHT22;6970;51.340;3.240;2024-01-11T14:20:53;5.40;99.90
13798;DHT22;6970;51.340;3.240;2024-01-11T14:23:20;5.40;99.90
13798;DHT22;6970;51.340;3.240;2024-01-11T14:25:50;5.40;99.90
13798;DHT22;6970;51.340;3.240;2024-01-11T14:28:20;5.50;99.90
13798;DHT22;6970;51.340;3.240;2024-01-11T14:30:53;5.50;99.90
13798;DHT22;6970;51.340;3.240;2024-01-11T14:33:20;5.40;99.90
13798;DHT22;6970;51.340;3.240;2024-01-11T14:35:50;5.40;99.90
13798;DHT22;6970;51.340;3.240;2024-01-11T14:38:20;5.40;99.90
13798;DHT22;6970;51.340;3.240;2024-01-11T14:40:47;5.40;99.90
13798;DHT22;6970;51.340;3.240;2024-01-11T14:43:18;5.30;99.90
13798;DHT22;6970;51.340;3.240;2024-01-11T14:45:45;5.30;99.90
13798;DHT22;6970;51.340;3.240;2024-01-11T14:48:15;5.30;99.90
13798;DHT22;6970;51.340;3.240;2024-01-11T14:50:43;5.30;99.90
13798;DHT22;6970;51.340;3.240;2024-01-11T14:53:14;5.30;99.90
13798;DHT22;6970;51.340;3.240;2024-01-11T14:55:42;5.30;99.90
13798;DHT22;6970;51.340;3.240;2024-01-11T14:58:14;5.30;99.90
13798;DHT22;6970;51.340;3.240;2024-01-11T15:00:42;5.30;99.90
13798;DHT22;6970;51.340;3.240;2024-01-11T15:03:09;5.30;99.90
13798;DHT22;6970;51.340;3.240;2024-01-11T15:05:37;5.30;99.90
13798;DHT22;6970;51.340;3.240;2024-01-11T15:08:04;5.30;99.90
13798;DHT22;6970;51.340;3.240;2024-01-11T15:10:32;5.20;99.90
13798;DHT22;6970;51.340;3.240;2024-01-11T15:12:59;5.10;99.90
13798;DHT22;6970;51.340;3.240;2024-01-11T15:15:28;4.90;99.90
13798;DHT22;6970;51.340;3.240;2024-01-11T15:17:56;4.80;99.90
13798;DHT22;6970;51.340;3.240;2024-01-11T15:20:26;4.80;99.90
13798;DHT22;6970;51.340;3.240;2024-01-11T15:22:53;4.80;99.90
13798;DHT22;6970;51.340;3.240;2024-01-11T15:25:20;4.80;99.90
13798;DHT22;6970;51.340;3.240;2024-01-11T15:27:48;4.70;99.90
13798;DHT22;6970;51.340;3.240;2024-01-11T15:30:18;4.70;99.90
13798;DHT22;6970;51.340;3.240;2024-01-11T15:32:47;4.80;99.90
13798;DHT22;6970;51.340;3.240;2024-01-11T15:35:14;4.80;99.90
13798;DHT22;6970;51.340;3.240;2024-01-11T15:37:43;4.70;99.90
13798;DHT22;6970;51.340;3.240;2024-01-11T15:40:11;4.70;99.90
13798;DHT22;6970;51.340;3.240;2024-01-11T15:42:37;4.60;99.90
13798;DHT22;6970;51.340;3.240;2024-01-11T15:45:07;4.60;99.90
13798;DHT22;6970;51.340;3.240;2024-01-11T15:47:37;4.50;99.90
13798;DHT22;6970;51.340;3.240;2024-01-11T15:50:05;4.50;99.90
13798;DHT22;6970;51.340;3.240;2024-01-11T15:52:38;4.40;99.90
13798;DHT22;6970;51.340;3.240;2024-01-11T15:55:06;4.30;99.90
13798;DHT22;6970;51.340;3.240;2024-01-11T15:57:39;4.30;99.90
13798;DHT22;6970;51.340;3.240;2024-01-11T16:00:08;4.20;99.90
13798;DHT22;6970;51.340;3.240;2024-01-11T16:02:37;4.20;99.90
13798;DHT22;6970;51.340;3.240;2024-01-11T16:05:08;4.10;99.90
13798;DHT22;6970;51.340;3.240;2024-01-11T16:07:38;4.10;99.90
13798;DHT22;6970;51.340;3.240;2024-01-11T16:10:08;4.10;99.90
13798;DHT22;6970;51.340;3.240;2024-01-11T16:12:35;4.00;99.90